sensor_id;sensor_type;location;lat;lon;timestamp;P1;durP1;ratioP1;P2;durP2;ratioP2
47760;SDS011;33524;55.434;38.520;2023-04-25T00:01:37;9.45;;;5.57;;
47760;SDS011;33524;55.434;38.520;2023-04-25T00:04:07;10.30;;;5.68;;
47760;SDS011;33524;55.434;38.520;2023-04-25T00:06:35;9.70;;;6.50;;
47760;SDS011;33524;55.434;38.520;2023-04-25T00:09:04;9.23;;;6.70;;
47760;SDS011;33524;55.434;38.520;2023-04-25T00:11:37;11.98;;;6.00;;
47760;SDS011;33524;55.434;38.520;2023-04-25T00:14:05;6.30;;;4.93;;
47760;SDS011;33524;55.434;38.520;2023-04-25T00:16:33;9.60;;;6.35;;
47760;SDS011;33524;55.434;38.520;2023-04-25T00:19:02;10.35;;;6.60;;
47760;SDS011;33524;55.434;38.520;2023-04-25T00:21:30;10.48;;;6.55;;
47760;SDS011;33524;55.434;38.520;2023-04-25T00:24:01;9.77;;;5.57;;
47760;SDS011;33524;55.434;38.520;2023-04-25T00:26:29;12.75;;;6.78;;
47760;SDS011;33524;55.434;38.520;2023-04-25T00:28:57;11.48;;;6.78;;
47760;SDS011;33524;55.434;38.520;2023-04-25T00:31:25;9.05;;;5.68;;
47760;SDS011;33524;55.434;38.520;2023-04-25T00:33:53;11.73;;;6.10;;
47760;SDS011;33524;55.434;38.520;2023-04-25T00:36:21;12.73;;;7.22;;
47760;SDS011;33524;55.434;38.520;2023-04-25T00:38:50;7.72;;;6.03;;
47760;SDS011;33524;55.434;38.520;2023-04-25T00:41:18;11.27;;;6.95;;
47760;SDS011;33524;55.434;38.520;2023-04-25T00:43:47;10.20;;;4.95;;
47760;SDS011;33524;55.434;38.520;2023-04-25T00:46:17;15.23;;;7.47;;
47760;SDS011;33524;55.434;38.520;2023-04-25T00:48:45;12.85;;;6.03;;
47760;SDS011;33524;55.434;38.520;2023-04-25T00:51:14;12.75;;;6.00;;
47760;SDS011;33524;55.434;38.520;2023-04-25T00:53:47;7.15;;;5.40;;
47760;SDS011;33524;55.434;38.520;2023-04-25T00:56:19;10.48;;;5.75;;
47760;SDS011;33524;55.434;38.520;2023-04-25T00:58:49;9.68;;;5.53;;
47760;SDS011;33524;55.434;38.520;2023-04-25T01:01:19;8.70;;;5.43;;
47760;SDS011;33524;55.434;38.520;2023-04-25T01:03:49;8.48;;;5.40;;
47760;SDS011;33524;55.434;38.520;2023-04-25T01:06:18;13.98;;;6.85;;
47760;SDS011;33524;55.434;38.520;2023-04-25T01:08:47;8.65;;;5.43;;
47760;SDS011;33524;55.434;38.520;2023-04-25T01:11:15;9.23;;;6.10;;
47760;SDS011;33524;55.434;38.520;2023-04-25T01:13:43;12.55;;;6.10;;
47760;SDS011;33524;55.434;38.520;2023-04-25T01:16:11;9.13;;;5.28;;
47760;SDS011;33524;55.434;38.520;2023-04-25T01:18:40;9.07;;;5.32;;
47760;SDS011;33524;55.434;38.520;2023-04-25T01:21:09;5.03;;;3.97;;
47760;SDS011;33524;55.434;38.520;2023-04-25T01:23:39;8.18;;;5.85;;
47760;SDS011;33524;55.434;38.520;2023-04-25T01:26:08;10.52;;;6.50;;
47760;SDS011;33524;55.434;38.520;2023-04-25T01:28:38;8.43;;;5.60;;
47760;SDS011;33524;55.434;38.520;2023-04-25T01:31:09;11.07;;;5.68;;
47760;SDS011;33524;55.434;38.520;2023-04-25T01:33:38;8.20;;;6.62;;
47760;SDS011;33524;55.434;38.520;2023-04-25T01:36:07;10.93;;;6.75;;
47760;SDS011;33524;55.434;38.520;2023-04-25T01:38:36;11.23;;;6.75;;
47760;SDS011;33524;55.434;38.520;2023-04-25T01:41:07;10.98;;;5.62;;
47760;SDS011;33524;55.434;38.520;2023-04-25T01:43:35;11.20;;;6.30;;
47760;SDS011;33524;55.434;38.520;2023-04-25T01:46:04;12.13;;;7.47;;
47760;SDS011;33524;55.434;38.520;2023-04-25T01:48:32;8.57;;;5.65;;
47760;SDS011;33524;55.434;38.520;2023-04-25T01:51:00;12.02;;;6.93;;
47760;SDS011;33524;55.434;38.520;2023-04-25T01:53:29;9.43;;;6.50;;
47760;SDS011;33524;55.434;38.520;2023-04-25T01:55:58;8.48;;;5.55;;
47760;SDS011;33524;55.434;38.520;2023-04-25T01:58:28;10.85;;;6.65;;
47760;SDS011;33524;55.434;38.520;2023-04-25T02:00:57;10.18;;;5.68;;
47760;SDS011;33524;55.434;38.520;2023-04-25T02:03:26;7.40;;;5.32;;
47760;SDS011;33524;55.434;38.520;2023-04-25T02:05:55;10.20;;;6.68;;
47760;SDS011;33524;55.434;38.520;2023-04-25T02:08:24;8.88;;;6.03;;
47760;SDS011;33524;55.434;38.520;2023-04-25T02:10:54;7.00;;;4.07;;
47760;SDS011;33524;55.434;38.520;2023-04-25T02:13:22;9.82;;;5.35;;
47760;SDS011;33524;55.434;38.520;2023-04-25T02:15:51;8.85;;;6.35;;
47760;SDS011;33524;55.434;38.520;2023-04-25T02:18:19;9.48;;;5.28;;
47760;SDS011;33524;55.434;38.520;2023-04-25T02:20:48;10.55;;;6.00;;
47760;SDS011;33524;55.434;38.520;2023-04-25T02:23:16;7.95;;;5.50;;
47760;SDS011;33524;55.434;38.520;2023-04-25T02:25:46;13.32;;;5.78;;
47760;SDS011;33524;55.434;38.520;2023-04-25T02:28:15;7.05;;;5.22;;
47760;SDS011;33524;55.434;38.520;2023-04-25T02:30:44;9.32;;;5.10;;
47760;SDS011;33524;55.434;38.520;2023-04-25T02:33:12;9.20;;;4.62;;
47760;SDS011;33524;55.434;38.520;2023-04-25T02:35:40;6.62;;;4.68;;
47760;SDS011;33524;55.434;38.520;2023-04-25T02:38:09;8.32;;;4.78;;
47760;SDS011;33524;55.434;38.520;2023-04-25T02:40:39;10.38;;;5.78;;
47760;SDS011;33524;55.434;38.520;2023-04-25T02:43:07;8.82;;;5.12;;
47760;SDS011;33524;55.434;38.520;2023-04-25T02:45:36;6.57;;;4.15;;
47760;SDS011;33524;55.434;38.520;2023-04-25T02:48:05;6.07;;;4.55;;
47760;SDS011;33524;55.434;38.520;2023-04-25T02:50:33;5.57;;;4.40;;
47760;SDS011;33524;55.434;38.520;2023-04-25T02:53:01;7.35;;;4.93;;
47760;SDS011;33524;55.434;38.520;2023-04-25T02:55:30;6.87;;;4.80;;
47760;SDS011;33524;55.434;38.520;2023-04-25T02:58:00;7.40;;;4.90;;
47760;SDS011;33524;55.434;38.520;2023-04-25T03:00:29;7.85;;;4.15;;
47760;SDS011;33524;55.434;38.520;2023-04-25T03:02:57;7.57;;;4.43;;
47760;SDS011;33524;55.434;38.520;2023-04-25T03:05:25;9.48;;;5.22;;
47760;SDS011;33524;55.434;38.520;2023-04-25T03:07:54;5.80;;;4.15;;
47760;SDS011;33524;55.434;38.520;2023-04-25T03:10:23;8.43;;;5.10;;
47760;SDS011;33524;55.434;38.520;2023-04-25T03:12:51;7.05;;;4.25;;
47760;SDS011;33524;55.434;38.520;2023-04-25T03:15:19;10.23;;;5.18;;
47760;SDS011;33524;55.434;38.520;2023-04-25T03:17:47;8.60;;;4.85;;
47760;SDS011;33524;55.434;38.520;2023-04-25T03:20:15;8.77;;;4.78;;
47760;SDS011;33524;55.434;38.520;2023-04-25T03:22:44;7.40;;;4.28;;
47760;SDS011;33524;55.434;38.520;2023-04-25T03:25:12;7.93;;;4.90;;
47760;SDS011;33524;55.434;38.520;2023-04-25T03:27:40;8.57;;;5.15;;
47760;SDS011;33524;55.434;38.520;2023-04-25T03:30:08;8.98;;;5.55;;
47760;SDS011;33524;55.434;38.520;2023-04-25T03:32:37;10.10;;;5.62;;
47760;SDS011;33524;55.434;38.520;2023-04-25T03:35:06;7.47;;;4.28;;
47760;SDS011;33524;55.434;38.520;2023-04-25T03:37:35;7.15;;;4.68;;
47760;SDS011;33524;55.434;38.520;2023-04-25T03:40:03;7.40;;;4.60;;
47760;SDS011;33524;55.434;38.520;2023-04-25T03:42:34;10.77;;;5.28;;
47760;SDS011;33524;55.434;38.520;2023-04-25T03:45:04;7.70;;;5.05;;
47760;SDS011;33524;55.434;38.520;2023-04-25T03:47:33;8.25;;;6.00;;
47760;SDS011;33524;55.434;38.520;2023-04-25T03:50:01;8.65;;;4.93;;
47760;SDS011;33524;55.434;38.520;2023-04-25T03:52:30;8.10;;;4.93;;
47760;SDS011;33524;55.434;38.520;2023-04-25T03:54:58;9.30;;;5.68;;
47760;SDS011;33524;55.434;38.520;2023-04-25T03:57:31;6.35;;;4.10;;
47760;SDS011;33524;55.434;38.520;2023-04-25T04:00:00;6.90;;;4.10;;
47760;SDS011;33524;55.434;38.520;2023-04-25T04:02:39;5.60;;;3.95;;
47760;SDS011;33524;55.434;38.520;2023-04-25T04:07:42;12.57;;;5.68;;
47760;SDS011;33524;55.434;38.520;2023-04-25T04:10:11;7.37;;;4.43;;
47760;SDS011;33524;55.434;38.520;2023-04-25T04:12:40;12.70;;;4.90;;
47760;SDS011;33524;55.434;38.520;2023-04-25T04:15:08;7.70;;;4.45;;
47760;SDS011;33524;55.434;38.520;2023-04-25T04:17:37;10.05;;;4.15;;
47760;SDS011;33524;55.434;38.520;2023-04-25T04:20:07;9.55;;;4.82;;
47760;SDS011;33524;55.434;38.520;2023-04-25T04:22:37;9.65;;;4.37;;
47760;SDS011;33524;55.434;38.520;2023-04-25T04:25:06;7.65;;;4.25;;
47760;SDS011;33524;55.434;38.520;2023-04-25T04:27:38;9.05;;;4.60;;
47760;SDS011;33524;55.434;38.520;2023-04-25T04:30:11;8.98;;;5.00;;
47760;SDS011;33524;55.434;38.520;2023-04-25T04:32:46;6.57;;;3.92;;
47760;SDS011;33524;55.434;38.520;2023-04-25T04:35:17;4.75;;;3.85;;
47760;SDS011;33524;55.434;38.520;2023-04-25T04:37:57;6.30;;;4.30;;
47760;SDS011;33524;55.434;38.520;2023-04-25T04:40:26;9.90;;;5.07;;
47760;SDS011;33524;55.434;38.520;2023-04-25T04:42:54;8.18;;;5.43;;
47760;SDS011;33524;55.434;38.520;2023-04-25T04:45:25;7.93;;;4.18;;
47760;SDS011;33524;55.434;38.520;2023-04-25T04:47:55;7.07;;;4.45;;
47760;SDS011;33524;55.434;38.520;2023-04-25T04:50:23;11.65;;;4.65;;
47760;SDS011;33524;55.434;38.520;2023-04-25T04:52:51;10.15;;;4.40;;
47760;SDS011;33524;55.434;38.520;2023-04-25T04:55:20;9.55;;;4.82;;
47760;SDS011;33524;55.434;38.520;2023-04-25T04:57:49;9.38;;;4.95;;
47760;SDS011;33524;55.434;38.520;2023-04-25T05:00:18;10.98;;;4.90;;
47760;SDS011;33524;55.434;38.520;2023-04-25T05:02:47;9.82;;;4.93;;
47760;SDS011;33524;55.434;38.520;2023-04-25T05:05:16;6.40;;;4.55;;
47760;SDS011;33524;55.434;38.520;2023-04-25T05:07:45;7.82;;;4.57;;
47760;SDS011;33524;55.434;38.520;2023-04-25T05:10:16;7.10;;;4.47;;
47760;SDS011;33524;55.434;38.520;2023-04-25T05:12:50;7.95;;;4.07;;
47760;SDS011;33524;55.434;38.520;2023-04-25T05:15:19;8.82;;;4.45;;
47760;SDS011;33524;55.434;38.520;2023-04-25T05:17:49;9.73;;;5.37;;
47760;SDS011;33524;55.434;38.520;2023-04-25T05:20:18;10.98;;;4.03;;
47760;SDS011;33524;55.434;38.520;2023-04-25T05:22:48;8.85;;;4.37;;
47760;SDS011;33524;55.434;38.520;2023-04-25T05:25:17;7.78;;;3.97;;
47760;SDS011;33524;55.434;38.520;2023-04-25T05:27:46;7.35;;;3.80;;
47760;SDS011;33524;55.434;38.520;2023-04-25T05:30:14;4.28;;;2.92;;
47760;SDS011;33524;55.434;38.520;2023-04-25T05:32:43;9.20;;;4.75;;
47760;SDS011;33524;55.434;38.520;2023-04-25T05:35:11;8.63;;;4.80;;
47760;SDS011;33524;55.434;38.520;2023-04-25T05:37:40;5.25;;;3.20;;
47760;SDS011;33524;55.434;38.520;2023-04-25T05:40:08;10.35;;;6.07;;
47760;SDS011;33524;55.434;38.520;2023-04-25T05:42:50;11.48;;;7.90;;
47760;SDS011;33524;55.434;38.520;2023-04-25T05:45:21;8.80;;;5.53;;
47760;SDS011;33524;55.434;38.520;2023-04-25T05:47:50;7.25;;;4.18;;
47760;SDS011;33524;55.434;38.520;2023-04-25T05:50:18;8.07;;;4.55;;
47760;SDS011;33524;55.434;38.520;2023-04-25T05:52:47;8.50;;;6.37;;
47760;SDS011;33524;55.434;38.520;2023-04-25T05:55:16;8.60;;;5.47;;
47760;SDS011;33524;55.434;38.520;2023-04-25T05:57:45;7.80;;;4.62;;
47760;SDS011;33524;55.434;38.520;2023-04-25T06:00:15;8.40;;;4.20;;
47760;SDS011;33524;55.434;38.520;2023-04-25T06:02:44;5.72;;;3.53;;
47760;SDS011;33524;55.434;38.520;2023-04-25T06:05:13;8.27;;;4.70;;
47760;SDS011;33524;55.434;38.520;2023-04-25T06:07:47;5.05;;;3.12;;
47760;SDS011;33524;55.434;38.520;2023-04-25T06:10:15;7.43;;;4.07;;
47760;SDS011;33524;55.434;38.520;2023-04-25T06:12:44;7.60;;;4.05;;
47760;SDS011;33524;55.434;38.520;2023-04-25T06:15:14;12.77;;;5.75;;
47760;SDS011;33524;55.434;38.520;2023-04-25T06:17:55;13.07;;;6.72;;
47760;SDS011;33524;55.434;38.520;2023-04-25T06:20:24;12.18;;;6.95;;
47760;SDS011;33524;55.434;38.520;2023-04-25T06:22:53;21.83;;;11.73;;
47760;SDS011;33524;55.434;38.520;2023-04-25T06:25:24;25.35;;;14.18;;
47760;SDS011;33524;55.434;38.520;2023-04-25T06:27:56;26.50;;;15.35;;
47760;SDS011;33524;55.434;38.520;2023-04-25T06:30:25;24.02;;;13.52;;
47760;SDS011;33524;55.434;38.520;2023-04-25T06:32:55;19.45;;;10.30;;
47760;SDS011;33524;55.434;38.520;2023-04-25T06:35:23;10.15;;;5.53;;
47760;SDS011;33524;55.434;38.520;2023-04-25T06:38:08;10.10;;;4.15;;
47760;SDS011;33524;55.434;38.520;2023-04-25T06:40:46;6.05;;;3.65;;
47760;SDS011;33524;55.434;38.520;2023-04-25T06:43:15;5.90;;;2.90;;
47760;SDS011;33524;55.434;38.520;2023-04-25T06:45:45;5.75;;;3.08;;
47760;SDS011;33524;55.434;38.520;2023-04-25T06:48:19;4.47;;;2.53;;
47760;SDS011;33524;55.434;38.520;2023-04-25T06:50:55;5.87;;;2.70;;
47760;SDS011;33524;55.434;38.520;2023-04-25T06:53:24;7.55;;;2.97;;
47760;SDS011;33524;55.434;38.520;2023-04-25T06:55:53;4.70;;;2.75;;
47760;SDS011;33524;55.434;38.520;2023-04-25T06:58:21;5.35;;;2.90;;
47760;SDS011;33524;55.434;38.520;2023-04-25T07:00:50;4.65;;;2.22;;
47760;SDS011;33524;55.434;38.520;2023-04-25T07:03:19;8.02;;;3.17;;
47760;SDS011;33524;55.434;38.520;2023-04-25T07:05:48;4.78;;;2.22;;
47760;SDS011;33524;55.434;38.520;2023-04-25T07:08:16;6.37;;;2.95;;
47760;SDS011;33524;55.434;38.520;2023-04-25T07:10:45;6.35;;;2.80;;
47760;SDS011;33524;55.434;38.520;2023-04-25T07:13:16;5.93;;;3.03;;
47760;SDS011;33524;55.434;38.520;2023-04-25T07:15:44;6.68;;;3.42;;
47760;SDS011;33524;55.434;38.520;2023-04-25T07:18:12;6.62;;;4.22;;
47760;SDS011;33524;55.434;38.520;2023-04-25T07:20:41;6.65;;;3.25;;
47760;SDS011;33524;55.434;38.520;2023-04-25T07:23:09;7.32;;;3.40;;
47760;SDS011;33524;55.434;38.520;2023-04-25T07:25:37;7.72;;;3.65;;
47760;SDS011;33524;55.434;38.520;2023-04-25T07:28:06;5.43;;;3.08;;
47760;SDS011;33524;55.434;38.520;2023-04-25T07:30:35;7.85;;;3.00;;
47760;SDS011;33524;55.434;38.520;2023-04-25T07:33:04;7.85;;;3.58;;
47760;SDS011;33524;55.434;38.520;2023-04-25T07:35:33;6.60;;;3.37;;
47760;SDS011;33524;55.434;38.520;2023-04-25T07:38:02;6.15;;;3.92;;
47760;SDS011;33524;55.434;38.520;2023-04-25T07:40:30;6.90;;;4.32;;
47760;SDS011;33524;55.434;38.520;2023-04-25T07:43:02;6.70;;;4.30;;
47760;SDS011;33524;55.434;38.520;2023-04-25T07:45:31;7.03;;;3.85;;
47760;SDS011;33524;55.434;38.520;2023-04-25T07:48:00;7.00;;;3.55;;
47760;SDS011;33524;55.434;38.520;2023-04-25T07:50:30;6.18;;;2.72;;
47760;SDS011;33524;55.434;38.520;2023-04-25T07:52:59;3.28;;;2.00;;
47760;SDS011;33524;55.434;38.520;2023-04-25T07:55:27;4.90;;;2.12;;
47760;SDS011;33524;55.434;38.520;2023-04-25T07:57:56;5.03;;;2.53;;
47760;SDS011;33524;55.434;38.520;2023-04-25T08:00:28;7.32;;;3.20;;
47760;SDS011;33524;55.434;38.520;2023-04-25T08:03:01;6.07;;;2.40;;
47760;SDS011;33524;55.434;38.520;2023-04-25T08:05:31;4.10;;;2.40;;
47760;SDS011;33524;55.434;38.520;2023-04-25T08:08:01;5.40;;;3.42;;
47760;SDS011;33524;55.434;38.520;2023-04-25T08:10:29;5.00;;;2.83;;
47760;SDS011;33524;55.434;38.520;2023-04-25T08:12:58;4.47;;;2.03;;
47760;SDS011;33524;55.434;38.520;2023-04-25T08:15:26;3.47;;;1.92;;
47760;SDS011;33524;55.434;38.520;2023-04-25T08:17:55;4.07;;;2.15;;
47760;SDS011;33524;55.434;38.520;2023-04-25T08:20:23;3.55;;;2.10;;
47760;SDS011;33524;55.434;38.520;2023-04-25T08:22:52;3.53;;;2.60;;
47760;SDS011;33524;55.434;38.520;2023-04-25T08:25:21;5.00;;;2.47;;
47760;SDS011;33524;55.434;38.520;2023-04-25T08:27:49;4.30;;;2.33;;
47760;SDS011;33524;55.434;38.520;2023-04-25T08:30:19;7.22;;;3.33;;
47760;SDS011;33524;55.434;38.520;2023-04-25T08:32:49;5.72;;;3.17;;
47760;SDS011;33524;55.434;38.520;2023-04-25T08:35:19;6.10;;;2.53;;
47760;SDS011;33524;55.434;38.520;2023-04-25T08:37:48;6.62;;;2.58;;
47760;SDS011;33524;55.434;38.520;2023-04-25T08:40:17;6.15;;;3.45;;
47760;SDS011;33524;55.434;38.520;2023-04-25T08:42:47;7.65;;;3.90;;
47760;SDS011;33524;55.434;38.520;2023-04-25T08:45:18;5.53;;;3.45;;
47760;SDS011;33524;55.434;38.520;2023-04-25T08:47:46;8.15;;;3.97;;
47760;SDS011;33524;55.434;38.520;2023-04-25T08:50:16;5.00;;;3.28;;
47760;SDS011;33524;55.434;38.520;2023-04-25T08:52:45;8.93;;;3.10;;
47760;SDS011;33524;55.434;38.520;2023-04-25T08:55:16;6.97;;;3.67;;
47760;SDS011;33524;55.434;38.520;2023-04-25T08:57:46;5.43;;;3.22;;
47760;SDS011;33524;55.434;38.520;2023-04-25T09:00:16;6.55;;;2.90;;
47760;SDS011;33524;55.434;38.520;2023-04-25T09:02:46;5.62;;;3.42;;
47760;SDS011;33524;55.434;38.520;2023-04-25T09:05:15;6.93;;;3.40;;
47760;SDS011;33524;55.434;38.520;2023-04-25T09:07:45;12.35;;;5.53;;
47760;SDS011;33524;55.434;38.520;2023-04-25T09:10:16;10.10;;;5.40;;
47760;SDS011;33524;55.434;38.520;2023-04-25T09:13:01;7.53;;;4.25;;
47760;SDS011;33524;55.434;38.520;2023-04-25T09:15:33;6.32;;;3.58;;
47760;SDS011;33524;55.434;38.520;2023-04-25T09:18:02;9.43;;;3.62;;
47760;SDS011;33524;55.434;38.520;2023-04-25T09:20:31;6.25;;;3.50;;
47760;SDS011;33524;55.434;38.520;2023-04-25T09:23:04;7.70;;;4.78;;
47760;SDS011;33524;55.434;38.520;2023-04-25T09:25:35;8.27;;;4.55;;
47760;SDS011;33524;55.434;38.520;2023-04-25T09:28:07;5.30;;;3.03;;
47760;SDS011;33524;55.434;38.520;2023-04-25T09:30:35;6.40;;;3.87;;
47760;SDS011;33524;55.434;38.520;2023-04-25T09:33:14;5.50;;;3.20;;
47760;SDS011;33524;55.434;38.520;2023-04-25T09:35:43;6.95;;;3.90;;
47760;SDS011;33524;55.434;38.520;2023-04-25T09:38:14;9.52;;;4.93;;
47760;SDS011;33524;55.434;38.520;2023-04-25T09:40:49;8.68;;;4.68;;
47760;SDS011;33524;55.434;38.520;2023-04-25T09:45:51;7.45;;;4.00;;
47760;SDS011;33524;55.434;38.520;2023-04-25T09:48:29;5.55;;;4.05;;
47760;SDS011;33524;55.434;38.520;2023-04-25T09:51:04;6.37;;;3.55;;
47760;SDS011;33524;55.434;38.520;2023-04-25T09:53:35;3.67;;;2.60;;
47760;SDS011;33524;55.434;38.520;2023-04-25T09:56:07;6.32;;;2.80;;
47760;SDS011;33524;55.434;38.520;2023-04-25T09:58:38;4.75;;;2.75;;
47760;SDS011;33524;55.434;38.520;2023-04-25T10:01:09;7.53;;;3.45;;
47760;SDS011;33524;55.434;38.520;2023-04-25T10:03:39;3.60;;;2.28;;
47760;SDS011;33524;55.434;38.520;2023-04-25T10:06:12;3.58;;;2.28;;
47760;SDS011;33524;55.434;38.520;2023-04-25T10:08:49;4.25;;;2.83;;
47760;SDS011;33524;55.434;38.520;2023-04-25T10:11:21;7.47;;;3.25;;
47760;SDS011;33524;55.434;38.520;2023-04-25T10:13:52;7.28;;;3.17;;
47760;SDS011;33524;55.434;38.520;2023-04-25T10:16:22;6.78;;;3.67;;
47760;SDS011;33524;55.434;38.520;2023-04-25T10:18:53;4.20;;;2.60;;
47760;SDS011;33524;55.434;38.520;2023-04-25T10:21:21;5.03;;;3.10;;
47760;SDS011;33524;55.434;38.520;2023-04-25T10:23:49;7.62;;;3.30;;
47760;SDS011;33524;55.434;38.520;2023-04-25T10:26:18;3.97;;;2.83;;
47760;SDS011;33524;55.434;38.520;2023-04-25T10:29:00;4.75;;;3.17;;
47760;SDS011;33524;55.434;38.520;2023-04-25T10:31:30;8.73;;;3.83;;
47760;SDS011;33524;55.434;38.520;2023-04-25T10:34:01;7.37;;;4.30;;
47760;SDS011;33524;55.434;38.520;2023-04-25T10:36:33;7.78;;;3.85;;
47760;SDS011;33524;55.434;38.520;2023-04-25T10:39:05;6.65;;;2.87;;
47760;SDS011;33524;55.434;38.520;2023-04-25T10:41:48;3.85;;;2.22;;
47760;SDS011;33524;55.434;38.520;2023-04-25T10:44:21;2.90;;;2.10;;
47760;SDS011;33524;55.434;38.520;2023-04-25T10:46:49;6.72;;;3.03;;
47760;SDS011;33524;55.434;38.520;2023-04-25T10:49:28;4.35;;;3.28;;
47760;SDS011;33524;55.434;38.520;2023-04-25T10:52:17;5.47;;;3.03;;
47760;SDS011;33524;55.434;38.520;2023-04-25T10:54:53;5.40;;;3.00;;
47760;SDS011;33524;55.434;38.520;2023-04-25T10:57:57;4.78;;;3.37;;
47760;SDS011;33524;55.434;38.520;2023-04-25T11:00:19;4.32;;;2.67;;
47760;SDS011;33524;55.434;38.520;2023-04-25T11:02:58;3.92;;;2.72;;
47760;SDS011;33524;55.434;38.520;2023-04-25T11:07:59;5.78;;;3.10;;
47760;SDS011;33524;55.434;38.520;2023-04-25T11:10:34;3.08;;;2.33;;
47760;SDS011;33524;55.434;38.520;2023-04-25T11:13:03;9.00;;;3.28;;
47760;SDS011;33524;55.434;38.520;2023-04-25T11:15:32;4.55;;;2.92;;
47760;SDS011;33524;55.434;38.520;2023-04-25T11:18:00;5.05;;;2.92;;
47760;SDS011;33524;55.434;38.520;2023-04-25T11:20:29;4.62;;;3.42;;
47760;SDS011;33524;55.434;38.520;2023-04-25T11:22:58;9.75;;;3.37;;
47760;SDS011;33524;55.434;38.520;2023-04-25T11:25:30;5.65;;;2.75;;
47760;SDS011;33524;55.434;38.520;2023-04-25T11:28:00;6.78;;;3.28;;
47760;SDS011;33524;55.434;38.520;2023-04-25T11:30:28;8.45;;;2.65;;
47760;SDS011;33524;55.434;38.520;2023-04-25T11:33:00;5.93;;;2.93;;
47760;SDS011;33524;55.434;38.520;2023-04-25T11:35:30;4.43;;;2.40;;
47760;SDS011;33524;55.434;38.520;2023-04-25T11:37:58;3.87;;;2.78;;
47760;SDS011;33524;55.434;38.520;2023-04-25T11:40:26;4.87;;;3.15;;
47760;SDS011;33524;55.434;38.520;2023-04-25T11:42:54;2.35;;;2.00;;
47760;SDS011;33524;55.434;38.520;2023-04-25T11:45:22;5.90;;;2.80;;
47760;SDS011;33524;55.434;38.520;2023-04-25T11:47:51;7.05;;;2.87;;
47760;SDS011;33524;55.434;38.520;2023-04-25T11:50:19;4.15;;;3.20;;
47760;SDS011;33524;55.434;38.520;2023-04-25T11:52:47;4.28;;;2.62;;
47760;SDS011;33524;55.434;38.520;2023-04-25T11:55:17;4.60;;;2.60;;
47760;SDS011;33524;55.434;38.520;2023-04-25T11:57:47;5.62;;;2.60;;
47760;SDS011;33524;55.434;38.520;2023-04-25T12:00:18;3.28;;;2.75;;
47760;SDS011;33524;55.434;38.520;2023-04-25T12:02:53;5.65;;;3.00;;
47760;SDS011;33524;55.434;38.520;2023-04-25T12:05:27;5.90;;;3.30;;
47760;SDS011;33524;55.434;38.520;2023-04-25T12:08:13;4.12;;;2.97;;
47760;SDS011;33524;55.434;38.520;2023-04-25T12:10:43;4.18;;;2.72;;
47760;SDS011;33524;55.434;38.520;2023-04-25T12:13:22;7.12;;;2.80;;
47760;SDS011;33524;55.434;38.520;2023-04-25T12:15:54;4.78;;;2.70;;
47760;SDS011;33524;55.434;38.520;2023-04-25T12:18:23;2.80;;;2.20;;
47760;SDS011;33524;55.434;38.520;2023-04-25T12:20:55;4.60;;;3.10;;
47760;SDS011;33524;55.434;38.520;2023-04-25T12:23:27;7.32;;;2.50;;
47760;SDS011;33524;55.434;38.520;2023-04-25T12:25:55;4.00;;;2.70;;
47760;SDS011;33524;55.434;38.520;2023-04-25T12:28:24;5.28;;;3.03;;
47760;SDS011;33524;55.434;38.520;2023-04-25T12:31:04;6.22;;;2.42;;
47760;SDS011;33524;55.434;38.520;2023-04-25T12:33:35;3.65;;;2.70;;
47760;SDS011;33524;55.434;38.520;2023-04-25T12:36:04;6.22;;;3.45;;
47760;SDS011;33524;55.434;38.520;2023-04-25T12:38:38;7.85;;;3.30;;
47760;SDS011;33524;55.434;38.520;2023-04-25T12:41:08;6.78;;;3.92;;
47760;SDS011;33524;55.434;38.520;2023-04-25T12:43:36;6.62;;;2.90;;
47760;SDS011;33524;55.434;38.520;2023-04-25T12:46:04;4.55;;;2.80;;
47760;SDS011;33524;55.434;38.520;2023-04-25T12:48:33;4.30;;;2.85;;
47760;SDS011;33524;55.434;38.520;2023-04-25T12:51:01;6.62;;;3.25;;
47760;SDS011;33524;55.434;38.520;2023-04-25T12:53:29;5.55;;;2.92;;
47760;SDS011;33524;55.434;38.520;2023-04-25T12:56:00;5.87;;;3.35;;
47760;SDS011;33524;55.434;38.520;2023-04-25T12:58:28;4.53;;;2.70;;
47760;SDS011;33524;55.434;38.520;2023-04-25T13:00:56;3.47;;;2.60;;
47760;SDS011;33524;55.434;38.520;2023-04-25T13:03:25;4.75;;;2.58;;
47760;SDS011;33524;55.434;38.520;2023-04-25T13:05:56;4.68;;;3.10;;
47760;SDS011;33524;55.434;38.520;2023-04-25T13:08:24;3.95;;;2.37;;
47760;SDS011;33524;55.434;38.520;2023-04-25T13:11:10;5.22;;;2.72;;
47760;SDS011;33524;55.434;38.520;2023-04-25T13:13:38;4.60;;;2.10;;
47760;SDS011;33524;55.434;38.520;2023-04-25T13:16:07;3.20;;;2.12;;
47760;SDS011;33524;55.434;38.520;2023-04-25T13:18:36;5.85;;;2.28;;
47760;SDS011;33524;55.434;38.520;2023-04-25T13:21:04;3.20;;;2.30;;
47760;SDS011;33524;55.434;38.520;2023-04-25T13:23:32;5.50;;;2.60;;
47760;SDS011;33524;55.434;38.520;2023-04-25T13:26:00;5.45;;;2.95;;
47760;SDS011;33524;55.434;38.520;2023-04-25T13:28:29;3.92;;;2.08;;
47760;SDS011;33524;55.434;38.520;2023-04-25T13:30:57;4.15;;;1.83;;
47760;SDS011;33524;55.434;38.520;2023-04-25T13:33:25;3.08;;;2.12;;
47760;SDS011;33524;55.434;38.520;2023-04-25T13:35:53;6.20;;;2.22;;
47760;SDS011;33524;55.434;38.520;2023-04-25T13:38:23;4.62;;;1.90;;
47760;SDS011;33524;55.434;38.520;2023-04-25T13:40:52;5.40;;;2.37;;
47760;SDS011;33524;55.434;38.520;2023-04-25T13:43:20;4.65;;;2.40;;
47760;SDS011;33524;55.434;38.520;2023-04-25T13:45:52;3.47;;;2.03;;
47760;SDS011;33524;55.434;38.520;2023-04-25T13:48:20;3.30;;;2.30;;
47760;SDS011;33524;55.434;38.520;2023-04-25T13:50:50;2.20;;;1.75;;
47760;SDS011;33524;55.434;38.520;2023-04-25T13:53:18;3.55;;;2.33;;
47760;SDS011;33524;55.434;38.520;2023-04-25T13:55:49;4.47;;;2.47;;
47760;SDS011;33524;55.434;38.520;2023-04-25T13:58:26;4.07;;;2.20;;
47760;SDS011;33524;55.434;38.520;2023-04-25T14:00:54;4.32;;;2.50;;
47760;SDS011;33524;55.434;38.520;2023-04-25T14:03:22;3.50;;;2.20;;
47760;SDS011;33524;55.434;38.520;2023-04-25T14:05:50;3.75;;;2.15;;
47760;SDS011;33524;55.434;38.520;2023-04-25T14:08:18;3.97;;;2.42;;
47760;SDS011;33524;55.434;38.520;2023-04-25T14:10:47;3.03;;;2.10;;
47760;SDS011;33524;55.434;38.520;2023-04-25T14:13:15;2.90;;;1.92;;
47760;SDS011;33524;55.434;38.520;2023-04-25T14:15:43;3.40;;;2.10;;
47760;SDS011;33524;55.434;38.520;2023-04-25T14:18:12;7.30;;;2.85;;
47760;SDS011;33524;55.434;38.520;2023-04-25T14:20:40;3.60;;;2.25;;
47760;SDS011;33524;55.434;38.520;2023-04-25T14:23:09;3.28;;;1.90;;
47760;SDS011;33524;55.434;38.520;2023-04-25T14:25:37;4.60;;;2.08;;
47760;SDS011;33524;55.434;38.520;2023-04-25T14:28:05;5.45;;;2.60;;
47760;SDS011;33524;55.434;38.520;2023-04-25T14:30:33;7.15;;;2.80;;
47760;SDS011;33524;55.434;38.520;2023-04-25T14:33:02;4.43;;;3.22;;
47760;SDS011;33524;55.434;38.520;2023-04-25T14:35:31;5.82;;;3.72;;
47760;SDS011;33524;55.434;38.520;2023-04-25T14:37:59;5.90;;;2.92;;
47760;SDS011;33524;55.434;38.520;2023-04-25T14:40:28;6.18;;;2.47;;
47760;SDS011;33524;55.434;38.520;2023-04-25T14:42:56;3.75;;;2.30;;
47760;SDS011;33524;55.434;38.520;2023-04-25T14:45:26;4.22;;;1.73;;
47760;SDS011;33524;55.434;38.520;2023-04-25T14:47:55;3.40;;;2.00;;
47760;SDS011;33524;55.434;38.520;2023-04-25T14:50:23;2.03;;;1.62;;
47760;SDS011;33524;55.434;38.520;2023-04-25T14:52:52;42.47;;;21.00;;
47760;SDS011;33524;55.434;38.520;2023-04-25T14:55:21;6.12;;;3.28;;
47760;SDS011;33524;55.434;38.520;2023-04-25T14:57:49;4.07;;;2.00;;